Johnsville, California
Current Conditions -  °F | °C
As of 3:52 AM on Monday 20 Oct 2014 (Local Time) from KBLU Reporting Station
Clear Clear  
Wind Chill: 52°   Ceiling: Unl
Heat Index: 52°   Visibility: 10mi
Dew Point: 36°   Wind: 6mph
Humidity: 54%   Direction: 150°SSE
Pressure: 30.04"   Gusts: NA
Location:  39.7722°N, 120.711°W
Report Text: KBLU 201052Z AUTO 15005KT 10SM CLR 11/02 A3004 RMK AO2 SLP108 T01110022
Loading
Personal Weather Stations






























Interactive Weather Map
Tropical Storm Tracking
New forecast layout! Learn more

10-Day Weather Forecast

Advertisements
Track Severe Weather on mobile